sensor_id;sensor_type;location;lat;lon;timestamp;temperature;humidity
7445;DHT22;3764;48.126;11.594;2022-08-19T00:01:25;18.00;99.90
7445;DHT22;3764;48.126;11.594;2022-08-19T00:03:55;18.00;99.90
7445;DHT22;3764;48.126;11.594;2022-08-19T00:06:22;18.00;99.90
7445;DHT22;3764;48.126;11.594;2022-08-19T00:08:49;18.00;99.90
7445;DHT22;3764;48.126;11.594;2022-08-19T00:11:33;18.00;99.90
7445;DHT22;3764;48.126;11.594;2022-08-19T00:14:03;18.00;99.90
7445;DHT22;3764;48.126;11.594;2022-08-19T00:16:31;18.00;99.90
7445;DHT22;3764;48.126;11.594;2022-08-19T00:18:58;18.00;99.90
7445;DHT22;3764;48.126;11.594;2022-08-19T00:21:26;18.10;99.90
7445;DHT22;3764;48.126;11.594;2022-08-19T00:23:53;18.10;99.90
7445;DHT22;3764;48.126;11.594;2022-08-19T00:26:24;18.10;99.90
7445;DHT22;3764;48.126;11.594;2022-08-19T00:28:53;18.10;99.90
7445;DHT22;3764;48.126;11.594;2022-08-19T00:31:20;18.10;99.90
7445;DHT22;3764;48.126;11.594;2022-08-19T00:33:48;18.20;99.90
7445;DHT22;3764;48.126;11.594;2022-08-19T00:36:16;18.10;99.90
7445;DHT22;3764;48.126;11.594;2022-08-19T00:38:43;18.10;99.90
7445;DHT22;3764;48.126;11.594;2022-08-19T00:41:13;18.10;99.90
7445;DHT22;3764;48.126;11.594;2022-08-19T00:43:40;18.10;99.90
7445;DHT22;3764;48.126;11.594;2022-08-19T00:46:10;18.10;99.90
7445;DHT22;3764;48.126;11.594;2022-08-19T00:48:37;18.10;99.90
7445;DHT22;3764;48.126;11.594;2022-08-19T00:51:05;18.20;99.90
7445;DHT22;3764;48.126;11.594;2022-08-19T00:53:33;18.10;99.90
7445;DHT22;3764;48.126;11.594;2022-08-19T00:56:02;18.20;99.90
7445;DHT22;3764;48.126;11.594;2022-08-19T00:58:34;18.30;99.90
7445;DHT22;3764;48.126;11.594;2022-08-19T01:01:04;18.20;99.90
7445;DHT22;3764;48.126;11.594;2022-08-19T01:03:32;18.20;99.90
7445;DHT22;3764;48.126;11.594;2022-08-19T01:06:00;18.20;99.90
7445;DHT22;3764;48.126;11.594;2022-08-19T01:08:27;18.30;99.90
7445;DHT22;3764;48.126;11.594;2022-08-19T01:10:56;18.20;99.90
7445;DHT22;3764;48.126;11.594;2022-08-19T01:13:26;18.30;99.90
7445;DHT22;3764;48.126;11.594;2022-08-19T01:15:57;18.30;99.90
7445;DHT22;3764;48.126;11.594;2022-08-19T01:18:25;18.30;99.90
7445;DHT22;3764;48.126;11.594;2022-08-19T01:20:57;18.30;99.90
7445;DHT22;3764;48.126;11.594;2022-08-19T01:23:26;18.30;99.90
7445;DHT22;3764;48.126;11.594;2022-08-19T01:26:09;18.30;99.90
7445;DHT22;3764;48.126;11.594;2022-08-19T01:28:37;18.30;99.90
7445;DHT22;3764;48.126;11.594;2022-08-19T01:31:08;18.30;99.90
7445;DHT22;3764;48.126;11.594;2022-08-19T01:33:37;18.30;99.90
7445;DHT22;3764;48.126;11.594;2022-08-19T01:36:06;18.30;99.90
7445;DHT22;3764;48.126;11.594;2022-08-19T01:38:37;18.30;99.90
7445;DHT22;3764;48.126;11.594;2022-08-19T01:41:06;18.30;99.90
7445;DHT22;3764;48.126;11.594;2022-08-19T01:43:34;18.30;99.90
7445;DHT22;3764;48.126;11.594;2022-08-19T01:46:01;18.20;99.90
7445;DHT22;3764;48.126;11.594;2022-08-19T01:48:33;18.20;99.90
7445;DHT22;3764;48.126;11.594;2022-08-19T01:51:01;18.20;99.90
7445;DHT22;3764;48.126;11.594;2022-08-19T01:53:28;18.20;99.90
7445;DHT22;3764;48.126;11.594;2022-08-19T01:55:57;18.20;99.90
7445;DHT22;3764;48.126;11.594;2022-08-19T01:58:29;18.10;99.90
7445;DHT22;3764;48.126;11.594;2022-08-19T02:00:59;18.10;99.90
7445;DHT22;3764;48.126;11.594;2022-08-19T02:03:26;18.10;99.90
7445;DHT22;3764;48.126;11.594;2022-08-19T02:05:56;18.10;99.90
7445;DHT22;3764;48.126;11.594;2022-08-19T02:08:24;18.10;99.90
7445;DHT22;3764;48.126;11.594;2022-08-19T02:10:51;18.10;99.90
7445;DHT22;3764;48.126;11.594;2022-08-19T02:13:20;18.10;99.90
7445;DHT22;3764;48.126;11.594;2022-08-19T02:15:47;18.10;99.90
7445;DHT22;3764;48.126;11.594;2022-08-19T02:18:14;18.10;99.90
7445;DHT22;3764;48.126;11.594;2022-08-19T02:20:43;18.10;99.90
7445;DHT22;3764;48.126;11.594;2022-08-19T02:23:11;18.10;99.90
7445;DHT22;3764;48.126;11.594;2022-08-19T02:25:38;18.10;99.90
7445;DHT22;3764;48.126;11.594;2022-08-19T02:28:05;18.10;99.90
7445;DHT22;3764;48.126;11.594;2022-08-19T02:30:34;18.10;99.90
7445;DHT22;3764;48.126;11.594;2022-08-19T02:33:01;18.10;99.90
7445;DHT22;3764;48.126;11.594;2022-08-19T02:35:28;18.10;99.90
7445;DHT22;3764;48.126;11.594;2022-08-19T02:37:55;18.10;99.90
7445;DHT22;3764;48.126;11.594;2022-08-19T02:40:48;18.10;99.90
7445;DHT22;3764;48.126;11.594;2022-08-19T02:43:17;18.10;99.90
7445;DHT22;3764;48.126;11.594;2022-08-19T02:45:47;18.10;99.90
7445;DHT22;3764;48.126;11.594;2022-08-19T02:48:15;18.10;99.90
7445;DHT22;3764;48.126;11.594;2022-08-19T02:50:44;18.10;99.90
7445;DHT22;3764;48.126;11.594;2022-08-19T02:53:11;18.10;99.90
7445;DHT22;3764;48.126;11.594;2022-08-19T02:55:43;18.10;99.90
7445;DHT22;3764;48.126;11.594;2022-08-19T02:58:11;18.10;99.90
7445;DHT22;3764;48.126;11.594;2022-08-19T03:00:43;18.20;99.90
7445;DHT22;3764;48.126;11.594;2022-08-19T03:03:12;18.20;99.90
7445;DHT22;3764;48.126;11.594;2022-08-19T03:05:39;18.20;99.90
7445;DHT22;3764;48.126;11.594;2022-08-19T03:08:07;18.20;99.90
7445;DHT22;3764;48.126;11.594;2022-08-19T03:10:41;18.30;99.90
7445;DHT22;3764;48.126;11.594;2022-08-19T03:13:11;18.30;99.90
7445;DHT22;3764;48.126;11.594;2022-08-19T03:15:40;18.30;99.90
7445;DHT22;3764;48.126;11.594;2022-08-19T03:18:08;18.30;99.90
7445;DHT22;3764;48.126;11.594;2022-08-19T03:20:41;18.30;99.90
7445;DHT22;3764;48.126;11.594;2022-08-19T03:23:09;18.30;99.90
7445;DHT22;3764;48.126;11.594;2022-08-19T03:25:40;18.30;99.90
7445;DHT22;3764;48.126;11.594;2022-08-19T03:28:09;18.30;99.90
7445;DHT22;3764;48.126;11.594;2022-08-19T03:30:36;18.30;99.90
7445;DHT22;3764;48.126;11.594;2022-08-19T03:33:05;18.30;99.90
7445;DHT22;3764;48.126;11.594;2022-08-19T03:35:32;18.30;99.90
7445;DHT22;3764;48.126;11.594;2022-08-19T03:38:04;18.30;99.90
7445;DHT22;3764;48.126;11.594;2022-08-19T03:40:31;18.30;99.90
7445;DHT22;3764;48.126;11.594;2022-08-19T03:43:00;18.30;99.90
7445;DHT22;3764;48.126;11.594;2022-08-19T03:45:28;18.30;99.90
7445;DHT22;3764;48.126;11.594;2022-08-19T03:47:55;18.30;99.90
7445;DHT22;3764;48.126;11.594;2022-08-19T03:50:23;18.30;99.90
7445;DHT22;3764;48.126;11.594;2022-08-19T03:52:51;18.30;99.90
7445;DHT22;3764;48.126;11.594;2022-08-19T03:55:20;18.30;99.90
7445;DHT22;3764;48.126;11.594;2022-08-19T03:57:47;18.30;99.90
7445;DHT22;3764;48.126;11.594;2022-08-19T04:00:15;18.30;99.90
7445;DHT22;3764;48.126;11.594;2022-08-19T04:02:42;18.30;99.90
7445;DHT22;3764;48.126;11.594;2022-08-19T04:05:09;18.40;99.90
7445;DHT22;3764;48.126;11.594;2022-08-19T04:07:36;18.40;99.90
7445;DHT22;3764;48.126;11.594;2022-08-19T04:10:04;18.40;99.90
7445;DHT22;3764;48.126;11.594;2022-08-19T04:12:33;18.40;99.90
7445;DHT22;3764;48.126;11.594;2022-08-19T04:15:00;18.40;99.90
7445;DHT22;3764;48.126;11.594;2022-08-19T04:17:27;18.40;99.90
7445;DHT22;3764;48.126;11.594;2022-08-19T04:19:54;18.50;99.90
7445;DHT22;3764;48.126;11.594;2022-08-19T04:22:21;18.40;99.90
7445;DHT22;3764;48.126;11.594;2022-08-19T04:24:48;18.40;99.90
7445;DHT22;3764;48.126;11.594;2022-08-19T04:27:15;18.40;99.90
7445;DHT22;3764;48.126;11.594;2022-08-19T04:29:44;18.40;99.90
7445;DHT22;3764;48.126;11.594;2022-08-19T04:32:11;18.40;99.90
7445;DHT22;3764;48.126;11.594;2022-08-19T04:34:41;18.40;99.90
7445;DHT22;3764;48.126;11.594;2022-08-19T04:37:09;18.40;99.90
7445;DHT22;3764;48.126;11.594;2022-08-19T04:39:37;18.40;99.90
7445;DHT22;3764;48.126;11.594;2022-08-19T04:42:22;18.40;99.90
7445;DHT22;3764;48.126;11.594;2022-08-19T04:45:11;18.40;99.90
7445;DHT22;3764;48.126;11.594;2022-08-19T04:47:40;18.30;99.90
7445;DHT22;3764;48.126;11.594;2022-08-19T04:50:08;18.30;99.90
7445;DHT22;3764;48.126;11.594;2022-08-19T04:52:37;18.40;99.90
7445;DHT22;3764;48.126;11.594;2022-08-19T04:55:05;18.40;99.90
7445;DHT22;3764;48.126;11.594;2022-08-19T04:57:33;18.40;99.90
7445;DHT22;3764;48.126;11.594;2022-08-19T05:00:01;18.40;99.90
7445;DHT22;3764;48.126;11.594;2022-08-19T05:02:29;18.40;99.90
7445;DHT22;3764;48.126;11.594;2022-08-19T05:04:57;18.40;99.90
7445;DHT22;3764;48.126;11.594;2022-08-19T05:07:26;18.40;99.90
7445;DHT22;3764;48.126;11.594;2022-08-19T05:09:53;18.40;99.90
7445;DHT22;3764;48.126;11.594;2022-08-19T05:12:20;18.40;99.90
7445;DHT22;3764;48.126;11.594;2022-08-19T05:14:48;18.40;99.90
7445;DHT22;3764;48.126;11.594;2022-08-19T05:17:15;18.40;99.90
7445;DHT22;3764;48.126;11.594;2022-08-19T05:19:43;18.40;99.90
7445;DHT22;3764;48.126;11.594;2022-08-19T05:22:28;18.40;99.90
7445;DHT22;3764;48.126;11.594;2022-08-19T05:25:04;18.40;99.90
7445;DHT22;3764;48.126;11.594;2022-08-19T05:27:32;18.40;99.90
7445;DHT22;3764;48.126;11.594;2022-08-19T05:29:59;18.40;99.90
7445;DHT22;3764;48.126;11.594;2022-08-19T05:32:27;18.40;99.90
7445;DHT22;3764;48.126;11.594;2022-08-19T05:34:56;18.50;99.90
7445;DHT22;3764;48.126;11.594;2022-08-19T05:37:23;18.50;99.90
7445;DHT22;3764;48.126;11.594;2022-08-19T05:39:52;18.50;99.90
7445;DHT22;3764;48.126;11.594;2022-08-19T05:42:20;18.50;99.90
7445;DHT22;3764;48.126;11.594;2022-08-19T05:44:48;18.40;99.90
7445;DHT22;3764;48.126;11.594;2022-08-19T05:47:16;18.40;99.90
7445;DHT22;3764;48.126;11.594;2022-08-19T05:49:45;18.40;99.90
7445;DHT22;3764;48.126;11.594;2022-08-19T05:52:15;18.40;99.90
7445;DHT22;3764;48.126;11.594;2022-08-19T05:54:42;18.40;99.90
7445;DHT22;3764;48.126;11.594;2022-08-19T05:57:15;18.40;99.90
7445;DHT22;3764;48.126;11.594;2022-08-19T05:59:42;18.40;99.90
7445;DHT22;3764;48.126;11.594;2022-08-19T06:02:17;18.40;99.90
7445;DHT22;3764;48.126;11.594;2022-08-19T06:04:44;18.40;99.90
7445;DHT22;3764;48.126;11.594;2022-08-19T06:07:12;18.40;99.90
7445;DHT22;3764;48.126;11.594;2022-08-19T06:09:41;18.50;99.90
7445;DHT22;3764;48.126;11.594;2022-08-19T06:12:08;18.50;99.90
7445;DHT22;3764;48.126;11.594;2022-08-19T06:14:35;18.50;99.90
7445;DHT22;3764;48.126;11.594;2022-08-19T06:17:03;18.60;99.90
7445;DHT22;3764;48.126;11.594;2022-08-19T06:19:30;18.60;99.90
7445;DHT22;3764;48.126;11.594;2022-08-19T06:21:58;18.50;99.90
7445;DHT22;3764;48.126;11.594;2022-08-19T06:24:29;18.50;99.90
7445;DHT22;3764;48.126;11.594;2022-08-19T06:26:58;18.50;99.90
7445;DHT22;3764;48.126;11.594;2022-08-19T06:29:26;18.50;99.90
7445;DHT22;3764;48.126;11.594;2022-08-19T06:31:57;18.50;99.90
7445;DHT22;3764;48.126;11.594;2022-08-19T06:34:24;18.50;99.90
7445;DHT22;3764;48.126;11.594;2022-08-19T06:36:53;18.50;99.90
7445;DHT22;3764;48.126;11.594;2022-08-19T06:39:28;18.40;99.90
7445;DHT22;3764;48.126;11.594;2022-08-19T06:41:58;18.40;99.90
7445;DHT22;3764;48.126;11.594;2022-08-19T06:44:28;18.40;99.90
7445;DHT22;3764;48.126;11.594;2022-08-19T06:47:02;18.40;99.90
7445;DHT22;3764;48.126;11.594;2022-08-19T06:49:29;18.30;99.90
7445;DHT22;3764;48.126;11.594;2022-08-19T06:51:58;18.40;99.90
7445;DHT22;3764;48.126;11.594;2022-08-19T06:54:27;18.30;99.90
7445;DHT22;3764;48.126;11.594;2022-08-19T06:56:55;18.30;99.90
7445;DHT22;3764;48.126;11.594;2022-08-19T06:59:24;18.30;99.90
7445;DHT22;3764;48.126;11.594;2022-08-19T07:01:54;18.40;99.90
7445;DHT22;3764;48.126;11.594;2022-08-19T07:04:23;18.40;99.90
7445;DHT22;3764;48.126;11.594;2022-08-19T07:06:57;18.40;99.90
7445;DHT22;3764;48.126;11.594;2022-08-19T07:09:24;18.50;99.90
7445;DHT22;3764;48.126;11.594;2022-08-19T07:11:54;18.50;99.90
7445;DHT22;3764;48.126;11.594;2022-08-19T07:14:23;18.50;99.90
7445;DHT22;3764;48.126;11.594;2022-08-19T07:16:53;18.60;99.90
7445;DHT22;3764;48.126;11.594;2022-08-19T07:19:22;18.60;99.90
7445;DHT22;3764;48.126;11.594;2022-08-19T07:21:51;18.60;99.90
7445;DHT22;3764;48.126;11.594;2022-08-19T07:24:19;18.60;99.90
7445;DHT22;3764;48.126;11.594;2022-08-19T07:26:50;18.70;99.90
7445;DHT22;3764;48.126;11.594;2022-08-19T07:29:20;18.70;99.90
7445;DHT22;3764;48.126;11.594;2022-08-19T07:31:48;18.70;99.90
7445;DHT22;3764;48.126;11.594;2022-08-19T07:34:16;18.80;99.90
7445;DHT22;3764;48.126;11.594;2022-08-19T07:36:43;18.80;99.90
7445;DHT22;3764;48.126;11.594;2022-08-19T07:39:13;18.90;99.90
7445;DHT22;3764;48.126;11.594;2022-08-19T07:41:41;18.90;99.90
7445;DHT22;3764;48.126;11.594;2022-08-19T07:44:09;18.90;99.90
7445;DHT22;3764;48.126;11.594;2022-08-19T07:46:41;19.00;99.90
7445;DHT22;3764;48.126;11.594;2022-08-19T07:49:11;19.00;99.90
7445;DHT22;3764;48.126;11.594;2022-08-19T07:51:45;19.00;99.90
7445;DHT22;3764;48.126;11.594;2022-08-19T07:54:13;19.00;99.90
7445;DHT22;3764;48.126;11.594;2022-08-19T07:56:40;19.10;99.90
7445;DHT22;3764;48.126;11.594;2022-08-19T07:59:07;19.10;99.90
7445;DHT22;3764;48.126;11.594;2022-08-19T08:01:36;19.10;99.90
7445;DHT22;3764;48.126;11.594;2022-08-19T08:04:07;19.10;99.90
7445;DHT22;3764;48.126;11.594;2022-08-19T08:06:51;19.10;99.90
7445;DHT22;3764;48.126;11.594;2022-08-19T08:09:38;19.10;99.90
7445;DHT22;3764;48.126;11.594;2022-08-19T08:12:08;19.10;99.90
7445;DHT22;3764;48.126;11.594;2022-08-19T08:14:38;19.10;99.90
7445;DHT22;3764;48.126;11.594;2022-08-19T08:17:06;19.10;99.90
7445;DHT22;3764;48.126;11.594;2022-08-19T08:19:37;19.10;99.90
7445;DHT22;3764;48.126;11.594;2022-08-19T08:22:04;19.10;99.90
7445;DHT22;3764;48.126;11.594;2022-08-19T08:24:33;19.10;99.90
7445;DHT22;3764;48.126;11.594;2022-08-19T08:27:02;19.00;99.90
7445;DHT22;3764;48.126;11.594;2022-08-19T08:29:30;19.00;99.90
7445;DHT22;3764;48.126;11.594;2022-08-19T08:31:58;19.00;99.90
7445;DHT22;3764;48.126;11.594;2022-08-19T08:34:25;19.00;99.90
7445;DHT22;3764;48.126;11.594;2022-08-19T08:36:54;19.00;99.90
7445;DHT22;3764;48.126;11.594;2022-08-19T08:39:21;19.00;99.90
7445;DHT22;3764;48.126;11.594;2022-08-19T08:41:54;19.00;99.90
7445;DHT22;3764;48.126;11.594;2022-08-19T08:44:28;19.00;99.90
7445;DHT22;3764;48.126;11.594;2022-08-19T08:47:01;19.00;99.90
7445;DHT22;3764;48.126;11.594;2022-08-19T08:49:36;19.00;99.90
7445;DHT22;3764;48.126;11.594;2022-08-19T08:52:11;19.00;99.90
7445;DHT22;3764;48.126;11.594;2022-08-19T08:54:43;19.00;99.90
7445;DHT22;3764;48.126;11.594;2022-08-19T08:57:14;19.00;99.90
7445;DHT22;3764;48.126;11.594;2022-08-19T08:59:43;19.00;99.90
7445;DHT22;3764;48.126;11.594;2022-08-19T09:02:14;19.10;99.90
7445;DHT22;3764;48.126;11.594;2022-08-19T09:04:41;19.10;99.90
7445;DHT22;3764;48.126;11.594;2022-08-19T09:07:39;19.10;99.90
7445;DHT22;3764;48.126;11.594;2022-08-19T09:10:15;19.10;99.90
7445;DHT22;3764;48.126;11.594;2022-08-19T09:12:57;19.10;99.90
7445;DHT22;3764;48.126;11.594;2022-08-19T09:15:31;19.10;99.90
7445;DHT22;3764;48.126;11.594;2022-08-19T09:18:01;19.10;99.90
7445;DHT22;3764;48.126;11.594;2022-08-19T09:20:29;19.20;99.90
7445;DHT22;3764;48.126;11.594;2022-08-19T09:22:59;19.20;99.90
7445;DHT22;3764;48.126;11.594;2022-08-19T09:25:26;19.10;99.90
7445;DHT22;3764;48.126;11.594;2022-08-19T09:27:54;19.10;99.90
7445;DHT22;3764;48.126;11.594;2022-08-19T09:30:24;19.10;99.90
7445;DHT22;3764;48.126;11.594;2022-08-19T09:32:52;19.10;99.90
7445;DHT22;3764;48.126;11.594;2022-08-19T09:35:20;19.10;99.90
7445;DHT22;3764;48.126;11.594;2022-08-19T09:37:48;19.10;99.90
7445;DHT22;3764;48.126;11.594;2022-08-19T09:40:18;19.00;99.90
7445;DHT22;3764;48.126;11.594;2022-08-19T09:42:46;19.00;99.90
7445;DHT22;3764;48.126;11.594;2022-08-19T09:45:14;18.90;99.90
7445;DHT22;3764;48.126;11.594;2022-08-19T09:47:42;18.90;99.90
7445;DHT22;3764;48.126;11.594;2022-08-19T09:50:11;18.90;99.90
7445;DHT22;3764;48.126;11.594;2022-08-19T09:52:38;18.90;99.90
7445;DHT22;3764;48.126;11.594;2022-08-19T09:55:09;18.90;99.90
7445;DHT22;3764;48.126;11.594;2022-08-19T09:57:38;18.90;99.90
7445;DHT22;3764;48.126;11.594;2022-08-19T10:00:08;19.00;99.90
7445;DHT22;3764;48.126;11.594;2022-08-19T10:02:35;19.00;99.90
7445;DHT22;3764;48.126;11.594;2022-08-19T10:05:03;19.00;99.90
7445;DHT22;3764;48.126;11.594;2022-08-19T10:07:48;19.00;99.90
7445;DHT22;3764;48.126;11.594;2022-08-19T10:10:16;19.10;99.90
7445;DHT22;3764;48.126;11.594;2022-08-19T10:12:44;19.10;99.90
7445;DHT22;3764;48.126;11.594;2022-08-19T10:15:13;19.10;99.90
7445;DHT22;3764;48.126;11.594;2022-08-19T10:17:41;19.20;99.90
7445;DHT22;3764;48.126;11.594;2022-08-19T10:20:08;19.20;99.90
7445;DHT22;3764;48.126;11.594;2022-08-19T10:22:36;19.30;99.90
7445;DHT22;3764;48.126;11.594;2022-08-19T10:25:05;19.30;99.90
7445;DHT22;3764;48.126;11.594;2022-08-19T10:27:32;19.30;99.90
7445;DHT22;3764;48.126;11.594;2022-08-19T10:30:01;19.40;99.90
7445;DHT22;3764;48.126;11.594;2022-08-19T10:32:28;19.40;99.90
7445;DHT22;3764;48.126;11.594;2022-08-19T10:34:56;19.50;99.90
7445;DHT22;3764;48.126;11.594;2022-08-19T10:37:23;19.50;99.90
7445;DHT22;3764;48.126;11.594;2022-08-19T10:39:50;19.60;99.90
7445;DHT22;3764;48.126;11.594;2022-08-19T10:42:17;19.60;99.90
7445;DHT22;3764;48.126;11.594;2022-08-19T10:44:45;19.70;99.90
7445;DHT22;3764;48.126;11.594;2022-08-19T10:47:15;19.80;99.90
7445;DHT22;3764;48.126;11.594;2022-08-19T10:49:42;19.90;99.90
7445;DHT22;3764;48.126;11.594;2022-08-19T10:52:27;19.90;99.90
7445;DHT22;3764;48.126;11.594;2022-08-19T10:54:59;19.90;99.90
7445;DHT22;3764;48.126;11.594;2022-08-19T10:57:44;20.00;99.90
7445;DHT22;3764;48.126;11.594;2022-08-19T11:00:12;20.00;99.90
7445;DHT22;3764;48.126;11.594;2022-08-19T11:02:41;20.00;99.90
7445;DHT22;3764;48.126;11.594;2022-08-19T11:05:09;20.10;99.90
7445;DHT22;3764;48.126;11.594;2022-08-19T11:07:38;20.00;99.90
7445;DHT22;3764;48.126;11.594;2022-08-19T11:10:06;20.00;99.90
7445;DHT22;3764;48.126;11.594;2022-08-19T11:12:36;20.10;99.90
7445;DHT22;3764;48.126;11.594;2022-08-19T11:15:05;20.10;99.90
7445;DHT22;3764;48.126;11.594;2022-08-19T11:17:33;20.10;99.90
7445;DHT22;3764;48.126;11.594;2022-08-19T11:20:03;20.20;99.90
7445;DHT22;3764;48.126;11.594;2022-08-19T11:22:31;20.20;99.90
7445;DHT22;3764;48.126;11.594;2022-08-19T11:24:58;20.20;99.90
7445;DHT22;3764;48.126;11.594;2022-08-19T11:27:25;20.20;99.90
7445;DHT22;3764;48.126;11.594;2022-08-19T11:29:54;20.10;99.90
7445;DHT22;3764;48.126;11.594;2022-08-19T11:32:21;20.10;99.90
7445;DHT22;3764;48.126;11.594;2022-08-19T11:34:48;20.10;99.90
7445;DHT22;3764;48.126;11.594;2022-08-19T11:37:17;20.20;99.90
7445;DHT22;3764;48.126;11.594;2022-08-19T11:39:44;20.20;99.90
7445;DHT22;3764;48.126;11.594;2022-08-19T11:42:11;20.20;99.90
7445;DHT22;3764;48.126;11.594;2022-08-19T11:44:56;20.20;99.90
7445;DHT22;3764;48.126;11.594;2022-08-19T11:47:23;20.20;99.90
7445;DHT22;3764;48.126;11.594;2022-08-19T11:49:50;20.20;99.90
7445;DHT22;3764;48.126;11.594;2022-08-19T11:52:20;20.20;99.90
7445;DHT22;3764;48.126;11.594;2022-08-19T11:54:47;20.20;99.90
7445;DHT22;3764;48.126;11.594;2022-08-19T11:57:14;20.20;99.90
7445;DHT22;3764;48.126;11.594;2022-08-19T11:59:47;20.20;99.90
7445;DHT22;3764;48.126;11.594;2022-08-19T12:02:14;20.20;99.90
7445;DHT22;3764;48.126;11.594;2022-08-19T12:04:42;20.20;99.90
7445;DHT22;3764;48.126;11.594;2022-08-19T12:07:09;20.20;99.90
7445;DHT22;3764;48.126;11.594;2022-08-19T12:09:37;20.20;99.90
7445;DHT22;3764;48.126;11.594;2022-08-19T12:12:05;20.20;99.90
7445;DHT22;3764;48.126;11.594;2022-08-19T12:14:32;20.20;99.90
7445;DHT22;3764;48.126;11.594;2022-08-19T12:17:00;20.20;99.90
7445;DHT22;3764;48.126;11.594;2022-08-19T12:19:27;20.20;99.90
7445;DHT22;3764;48.126;11.594;2022-08-19T12:21:58;20.20;99.90
7445;DHT22;3764;48.126;11.594;2022-08-19T12:24:26;20.20;99.90
7445;DHT22;3764;48.126;11.594;2022-08-19T12:26:54;20.20;99.90
7445;DHT22;3764;48.126;11.594;2022-08-19T12:29:22;20.20;99.90
7445;DHT22;3764;48.126;11.594;2022-08-19T12:31:54;20.30;99.90
7445;DHT22;3764;48.126;11.594;2022-08-19T12:34:28;20.30;99.90
7445;DHT22;3764;48.126;11.594;2022-08-19T12:36:57;20.30;99.90
7445;DHT22;3764;48.126;11.594;2022-08-19T12:39:24;20.30;99.90
7445;DHT22;3764;48.126;11.594;2022-08-19T12:41:51;20.40;99.90
7445;DHT22;3764;48.126;11.594;2022-08-19T12:44:20;20.30;99.90
7445;DHT22;3764;48.126;11.594;2022-08-19T12:46:47;20.40;99.90
7445;DHT22;3764;48.126;11.594;2022-08-19T12:49:15;20.30;99.90
7445;DHT22;3764;48.126;11.594;2022-08-19T12:51:42;20.40;99.90
7445;DHT22;3764;48.126;11.594;2022-08-19T12:54:09;20.40;99.90
7445;DHT22;3764;48.126;11.594;2022-08-19T12:56:37;20.50;99.90
7445;DHT22;3764;48.126;11.594;2022-08-19T12:59:04;20.50;99.90
7445;DHT22;3764;48.126;11.594;2022-08-19T13:01:34;20.60;99.90
7445;DHT22;3764;48.126;11.594;2022-08-19T13:04:02;20.60;99.90
7445;DHT22;3764;48.126;11.594;2022-08-19T13:06:29;20.60;99.90
7445;DHT22;3764;48.126;11.594;2022-08-19T13:08:56;20.70;99.90
7445;DHT22;3764;48.126;11.594;2022-08-19T13:11:23;20.80;99.90
7445;DHT22;3764;48.126;11.594;2022-08-19T13:13:52;20.80;99.90
7445;DHT22;3764;48.126;11.594;2022-08-19T13:16:21;20.90;99.90
7445;DHT22;3764;48.126;11.594;2022-08-19T13:18:50;21.00;99.90
7445;DHT22;3764;48.126;11.594;2022-08-19T13:21:19;21.00;99.90
7445;DHT22;3764;48.126;11.594;2022-08-19T13:23:47;21.10;99.90
7445;DHT22;3764;48.126;11.594;2022-08-19T13:26:14;21.10;99.90
7445;DHT22;3764;48.126;11.594;2022-08-19T13:28:42;21.10;99.90
7445;DHT22;3764;48.126;11.594;2022-08-19T13:31:29;21.20;99.90
7445;DHT22;3764;48.126;11.594;2022-08-19T13:34:16;21.20;99.90
7445;DHT22;3764;48.126;11.594;2022-08-19T13:36:45;21.30;99.90
7445;DHT22;3764;48.126;11.594;2022-08-19T13:39:12;21.30;99.90
7445;DHT22;3764;48.126;11.594;2022-08-19T13:41:44;21.30;99.90
7445;DHT22;3764;48.126;11.594;2022-08-19T13:44:13;21.40;99.90
7445;DHT22;3764;48.126;11.594;2022-08-19T13:46:40;21.40;99.90
7445;DHT22;3764;48.126;11.594;2022-08-19T13:49:11;21.40;99.90
7445;DHT22;3764;48.126;11.594;2022-08-19T13:51:40;21.40;99.90
7445;DHT22;3764;48.126;11.594;2022-08-19T13:54:07;21.40;99.90
7445;DHT22;3764;48.126;11.594;2022-08-19T13:56:35;21.50;99.90
7445;DHT22;3764;48.126;11.594;2022-08-19T13:59:06;21.40;99.90
7445;DHT22;3764;48.126;11.594;2022-08-19T14:01:33;21.30;99.90
7445;DHT22;3764;48.126;11.594;2022-08-19T14:04:00;21.30;99.90
7445;DHT22;3764;48.126;11.594;2022-08-19T14:06:27;21.30;99.90
7445;DHT22;3764;48.126;11.594;2022-08-19T14:08:56;21.20;99.90
7445;DHT22;3764;48.126;11.594;2022-08-19T14:11:23;21.10;99.90
7445;DHT22;3764;48.126;11.594;2022-08-19T14:13:50;21.00;99.90
7445;DHT22;3764;48.126;11.594;2022-08-19T14:16:18;21.00;99.90
7445;DHT22;3764;48.126;11.594;2022-08-19T14:18:45;20.90;99.90
7445;DHT22;3764;48.126;11.594;2022-08-19T14:21:16;20.90;99.90
7445;DHT22;3764;48.126;11.594;2022-08-19T14:23:43;21.00;99.90
7445;DHT22;3764;48.126;11.594;2022-08-19T14:26:15;21.00;99.90
7445;DHT22;3764;48.126;11.594;2022-08-19T14:28:45;21.00;99.90
7445;DHT22;3764;48.126;11.594;2022-08-19T14:31:14;21.10;99.90
7445;DHT22;3764;48.126;11.594;2022-08-19T14:33:44;21.10;99.90
7445;DHT22;3764;48.126;11.594;2022-08-19T14:36:11;21.20;99.90
7445;DHT22;3764;48.126;11.594;2022-08-19T14:38:38;21.20;99.90
7445;DHT22;3764;48.126;11.594;2022-08-19T14:41:08;21.30;99.90
7445;DHT22;3764;48.126;11.594;2022-08-19T14:43:37;21.20;99.90
7445;DHT22;3764;48.126;11.594;2022-08-19T14:46:05;21.20;99.90
7445;DHT22;3764;48.126;11.594;2022-08-19T14:48:33;21.10;99.90
7445;DHT22;3764;48.126;11.594;2022-08-19T14:51:02;21.10;99.90
7445;DHT22;3764;48.126;11.594;2022-08-19T14:53:29;21.10;99.90
7445;DHT22;3764;48.126;11.594;2022-08-19T14:55:56;21.10;99.90
7445;DHT22;3764;48.126;11.594;2022-08-19T14:58:23;21.00;99.90
7445;DHT22;3764;48.126;11.594;2022-08-19T15:00:51;21.10;99.90
7445;DHT22;3764;48.126;11.594;2022-08-19T15:03:18;21.10;99.90
7445;DHT22;3764;48.126;11.594;2022-08-19T15:05:46;21.10;99.90
7445;DHT22;3764;48.126;11.594;2022-08-19T15:08:13;21.10;99.90
7445;DHT22;3764;48.126;11.594;2022-08-19T15:10:40;21.10;99.90
7445;DHT22;3764;48.126;11.594;2022-08-19T15:13:07;21.10;99.90
7445;DHT22;3764;48.126;11.594;2022-08-19T15:15:35;21.10;99.90
7445;DHT22;3764;48.126;11.594;2022-08-19T15:18:04;21.10;99.90
7445;DHT22;3764;48.126;11.594;2022-08-19T15:20:31;21.10;99.90
7445;DHT22;3764;48.126;11.594;2022-08-19T15:22:58;21.20;99.90
7445;DHT22;3764;48.126;11.594;2022-08-19T15:25:26;21.20;99.90
7445;DHT22;3764;48.126;11.594;2022-08-19T15:27:54;21.20;99.90
7445;DHT22;3764;48.126;11.594;2022-08-19T15:30:24;21.20;99.90
7445;DHT22;3764;48.126;11.594;2022-08-19T15:32:52;21.10;99.90
7445;DHT22;3764;48.126;11.594;2022-08-19T15:35:22;21.10;99.90
7445;DHT22;3764;48.126;11.594;2022-08-19T15:37:50;21.00;99.90
7445;DHT22;3764;48.126;11.594;2022-08-19T15:40:19;21.00;99.90
7445;DHT22;3764;48.126;11.594;2022-08-19T15:42:47;20.90;99.90
7445;DHT22;3764;48.126;11.594;2022-08-19T15:45:17;20.80;99.90
7445;DHT22;3764;48.126;11.594;2022-08-19T15:47:44;20.70;99.90
7445;DHT22;3764;48.126;11.594;2022-08-19T15:50:14;20.60;99.90
7445;DHT22;3764;48.126;11.594;2022-08-19T15:52:49;20.50;99.90
7445;DHT22;3764;48.126;11.594;2022-08-19T15:55:17;20.50;99.90
7445;DHT22;3764;48.126;11.594;2022-08-19T15:57:45;20.40;99.90